Time;durP1;ratioP1;P1;durP2;ratioP2;P2;SDS_P1;SDS_P2;PMS_P1;PMS_P2;Temp;Humidity;BMP_temperature;BMP_pressure;BME280_temperature;BME280_humidity;BME280_pressure;Samples;Min_cycle;Max_cycle;Signal;HPM_P1;HPM_P2
2021/03/04 00:01:35;;;;;;;17.98;9.90;;;;;;;5.80;52.09;94690.72;4868815;28;20042;-85
2021/03/04 00:04:16;;;;;;;15.50;9.68;;;;;;;5.72;52.27;94688.50;4879370;28;20099;-84
2021/03/04 00:07:03;;;;;;;16.92;9.15;;;;;;;6.08;52.12;94748.44;4871768;28;20634;-84
2021/03/04 00:09:31;;;;;;;19.42;8.93;;;;;;;5.79;52.01;94710.13;4910372;28;20042;-84
2021/03/04 00:12:20;;;;;;;14.52;8.85;;;;;;;5.68;52.34;94694.19;4901469;28;20177;-84
2021/03/04 00:14:51;;;;;;;13.52;9.43;;;;;;;5.49;52.74;94681.53;4914614;23;20129;-85
2021/03/04 00:17:46;;;;;;;21.88;12.98;;;;;;;5.53;52.86;94680.81;4886511;28;20054;-84
2021/03/04 00:20:19;;;;;;;21.23;11.60;;;;;;;5.57;53.39;94699.53;4905289;28;20039;-84
2021/03/04 00:22:47;;;;;;;21.20;12.68;;;;;;;5.31;53.55;94653.69;4925698;28;20564;-85
2021/03/04 00:25:18;;;;;;;18.63;12.52;;;;;;;5.55;53.57;94678.78;4937019;28;20046;-84
2021/03/04 00:27:43;;;;;;;21.23;12.57;;;;;;;5.44;53.59;94682.22;4926186;28;20075;-85
2021/03/04 00:30:15;;;;;;;20.38;11.98;;;;;;;5.53;53.56;94696.56;4945578;28;20376;-84
2021/03/04 00:32:43;;;;;;;18.35;12.45;;;;;;;5.20;54.11;94659.78;4925339;28;20066;-85
2021/03/04 00:35:15;;;;;;;22.15;12.48;;;;;;;5.21;54.21;94650.88;4934461;28;20745;-84
2021/03/04 00:37:48;;;;;;;18.02;10.35;;;;;;;5.17;53.97;94644.53;4927290;28;20063;-85
2021/03/04 00:40:20;;;;;;;18.92;11.32;;;;;;;5.29;54.36;94657.56;4919539;28;20137;-84
2021/03/04 00:42:46;;;;;;;16.60;10.43;;;;;;;5.04;54.55;94634.31;4906865;28;20249;-85
2021/03/04 00:45:18;;;;;;;13.27;9.32;;;;;;;5.03;54.46;94632.75;4917104;28;20748;-84
2021/03/04 00:47:49;;;;;;;17.85;10.30;;;;;;;4.99;54.61;94629.78;4892127;28;20052;-84
2021/03/04 00:50:18;;;;;;;15.05;9.35;;;;;;;5.16;54.62;94656.03;4899355;28;21676;-85
2021/03/04 00:52:52;;;;;;;13.25;9.40;;;;;;;5.18;54.54;94660.00;4912549;29;20135;-84
2021/03/04 00:55:18;;;;;;;16.65;10.07;;;;;;;5.14;54.51;94666.75;4927807;28;20409;-84
2021/03/04 00:57:46;;;;;;;14.45;8.93;;;;;;;5.15;54.35;94652.63;4909273;28;20079;-85
2021/03/04 01:00:23;;;;;;;15.35;9.38;;;;;;;4.99;54.45;94627.16;4921069;28;20046;-85
2021/03/04 01:02:48;;;;;;;12.77;8.55;;;;;;;5.34;54.59;94674.19;4888832;28;20068;-85
2021/03/04 01:05:20;;;;;;;15.07;9.95;;;;;;;4.99;54.54;94616.66;4909970;28;20659;-85
2021/03/04 01:07:55;;;;;;;14.15;8.75;;;;;;;5.38;54.47;94687.59;4940363;28;20028;-85
2021/03/04 01:10:28;;;;;;;10.95;7.72;;;;;;;5.20;54.18;94644.84;4920292;28;20054;-84
2021/03/04 01:12:53;;;;;;;13.70;8.70;;;;;;;5.15;54.41;94641.34;4921214;28;20214;-85
2021/03/04 01:15:28;;;;;;;12.95;8.20;;;;;;;5.11;54.78;94642.84;4904302;28;20082;-85
2021/03/04 01:18:11;;;;;;;15.27;8.77;;;;;;;5.23;54.92;94664.53;4916688;28;20532;-85
2021/03/04 01:20:59;;;;;;;14.70;8.30;;;;;;;5.29;55.06;94674.09;4900462;28;20130;-85
2021/03/04 01:23:45;;;;;;;15.23;9.18;;;;;;;5.05;55.27;94633.28;4916936;28;20039;-85
2021/03/04 01:26:14;;;;;;;12.73;8.98;;;;;;;4.95;55.15;94610.31;4923538;28;20042;-85
2021/03/04 01:28:53;;;;;;;16.52;9.85;;;;;;;5.23;54.78;94651.44;4917494;29;20027;-85
2021/03/04 01:31:19;;;;;;;14.35;9.82;;;;;;;4.66;55.04;94567.59;4885991;29;20066;-84
2021/03/04 01:33:51;;;;;;;15.15;9.82;;;;;;;5.25;54.90;94662.50;4898186;28;20493;-85
2021/03/04 01:36:43;;;;;;;22.50;12.07;;;;;;;4.84;54.59;94576.31;4941074;28;20108;-85
2021/03/04 01:39:20;;;;;;;15.55;8.73;;;;;;;4.91;54.71;94569.13;4929410;28;20201;-85
2021/03/04 01:41:56;;;;;;;18.98;11.40;;;;;;;5.28;54.94;94643.66;4929537;28;20075;-85
2021/03/04 01:47:48;;;;;;;18.20;9.90;;;;;;;5.17;55.33;94640.09;4896812;28;20445;-85
2021/03/04 01:50:21;;;;;;;16.77;9.85;;;;;;;4.74;55.54;94593.41;4905246;28;20035;-85
2021/03/04 01:52:52;;;;;;;16.00;9.43;;;;;;;4.79;56.14;94605.81;4930079;28;20106;-85
2021/03/04 01:55:21;;;;;;;15.55;10.35;;;;;;;4.89;55.82;94598.16;4933017;28;20031;-85
2021/03/04 01:57:54;;;;;;;19.55;10.48;;;;;;;5.04;56.04;94629.88;4920460;28;20096;-85
2021/03/04 02:00:23;;;;;;;17.73;11.70;;;;;;;4.75;56.50;94594.22;4902726;28;20079;-85
2021/03/04 02:02:55;;;;;;;17.10;11.07;;;;;;;4.54;56.49;94568.69;4919273;28;20169;-85
2021/03/04 02:05:33;;;;;;;19.90;11.90;;;;;;;4.71;56.58;94593.88;4924643;28;20044;-85
2021/03/04 02:08:23;;;;;;;17.50;10.95;;;;;;;4.60;56.60;94576.38;4928810;28;20088;-85
2021/03/04 02:11:01;;;;;;;19.77;12.43;;;;;;;4.76;56.96;94607.09;4929697;28;20023;-85
2021/03/04 02:14:15;;;;;;;23.23;13.05;;;;;;;4.68;57.39;94617.13;4921167;28;20106;-85
2021/03/04 02:17:06;;;;;;;;;;;;;;;;;;;;;
2021/03/04 02:19:58;;;;;;;14.68;9.52;;;;;;;4.75;56.82;94621.19;4879068;28;20262;-85
2021/03/04 02:22:51;;;;;;;20.48;9.32;;;;;;;4.76;56.58;94624.63;4881832;28;20108;-85
2021/03/04 02:25:27;;;;;;;14.18;10.43;;;;;;;4.48;57.06;94603.63;4933667;28;20074;-86
2021/03/04 02:27:55;;;;;;;15.88;10.40;;;;;;;4.57;56.77;94613.50;4931457;28;20086;-85
2021/03/04 02:30:33;;;;;;;14.68;9.32;;;;;;;4.48;57.13;94614.09;4916010;28;20077;-85
2021/03/04 02:33:14;;;;;;;15.32;9.18;;;;;;;4.37;57.16;94592.16;4908044;28;20047;-84
2021/03/04 02:35:46;;;;;;;14.38;8.63;;;;;;;4.55;57.24;94625.22;4915063;28;20035;-85
2021/03/04 02:38:17;;;;;;;13.32;8.55;;;;;;;4.32;57.19;94584.19;4886163;28;20023;-85
2021/03/04 02:40:59;;;;;;;;;;;;;;;;;;;;;
2021/03/04 02:43:28;;;;;;;14.05;8.27;;;;;;;4.53;57.48;94617.63;4904655;29;20178;-85
2021/03/04 02:46:04;;;;;;;13.70;8.52;;;;;;;3.95;57.46;94531.38;4840008;29;20670;-85
2021/03/04 02:48:31;;;;;;;;;;;;;;;4.38;57.69;94619.91;4917797;29;20056;-85
2021/03/04 02:51:06;;;;;;;16.40;9.27;;;;;;;4.32;58.14;94616.41;4917318;28;19938;-85
2021/03/04 02:56:46;;;;;;;20.20;12.30;;;;;;;3.98;58.23;94566.72;4908357;28;20681;-85
2021/03/04 02:59:12;;;;;;;19.73;12.43;;;;;;;4.17;58.50;94596.94;4912745;28;20094;-85
2021/03/04 03:01:55;;;;;;;15.20;10.60;;;;;;;4.02;58.20;94573.09;4918115;28;20047;-85
2021/03/04 03:04:22;;;;;;;14.68;8.98;;;;;;;3.93;58.11;94557.75;4933736;28;20501;-85
2021/03/04 03:06:48;;;;;;;14.90;9.02;;;;;;;3.88;58.21;94552.41;4914026;28;20605;-85
2021/03/04 03:09:29;;;;;;;17.13;10.35;;;;;;;4.09;58.18;94584.22;4894393;28;20102;-86
2021/03/04 03:12:01;;;;;;;18.63;10.63;;;;;;;4.09;58.67;94599.94;4895310;28;20250;-85
2021/03/04 03:14:36;;;;;;;17.52;11.45;;;;;;;3.85;58.82;94558.09;4837862;29;20476;-85
2021/03/04 03:17:06;;;;;;;21.75;11.85;;;;;;;3.66;58.99;94532.31;4855023;28;20112;-85
2021/03/04 03:19:32;;;;;;;19.88;11.18;;;;;;;4.03;58.80;94585.13;4946248;28;20859;-85
2021/03/04 03:21:58;;;;;;;26.38;13.20;;;;;;;3.88;58.80;94562.88;4930321;28;20046;-85
2021/03/04 03:24:26;;;;;;;18.30;11.73;;;;;;;3.97;58.47;94575.59;4941955;28;20073;-85
2021/03/04 03:26:57;;;;;;;17.02;10.90;;;;;;;4.01;58.61;94597.66;4927680;28;20504;-85
2021/03/04 03:29:30;;;;;;;17.52;11.15;;;;;;;4.01;58.67;94577.50;4872108;28;20098;-85
2021/03/04 03:32:16;;;;;;;17.95;12.15;;;;;;;4.06;59.06;94597.75;4908215;28;20019;-85
2021/03/04 03:34:52;;;;;;;19.08;12.25;;;;;;;3.68;59.06;94519.78;4902887;28;20062;-85
2021/03/04 03:37:31;;;;;;;;;;;;;;;;;;;;;
2021/03/04 03:40:35;;;;;;;19.70;11.88;;;;;;;3.81;58.99;94559.56;4904236;28;20624;-85
2021/03/04 03:43:14;;;;;;;19.38;11.85;;;;;;;3.77;59.36;94565.47;4901043;28;20672;-85
2021/03/04 03:45:51;;;;;;;20.67;13.75;;;;;;;4.02;59.36;94601.84;4885312;28;20079;-85
2021/03/04 03:48:30;;;;;;;25.40;13.63;;;;;;;3.68;59.14;94546.72;4921115;28;20206;-85
2021/03/04 03:50:59;;;;;;;21.30;11.48;;;;;;;4.07;59.30;94599.34;4914194;28;20146;-85
2021/03/04 03:53:26;;;;;;;21.55;11.57;;;;;;;3.74;59.03;94566.75;4922570;28;20136;-85
2021/03/04 03:56:01;;;;;;;18.00;11.57;;;;;;;3.46;59.08;94528.22;4943677;28;20086;-85
2021/03/04 03:58:31;;;;;;;23.13;12.68;;;;;;;3.59;59.18;94550.69;4940874;28;20452;-85
2021/03/04 04:01:18;;;;;;;22.52;12.77;;;;;;;3.40;59.42;94528.31;4899042;28;20131;-85
2021/03/04 04:03:50;;;;;;;21.48;12.77;;;;;;;3.83;59.66;94590.72;4872399;28;20161;-85
2021/03/04 04:06:28;;;;;;;24.02;13.90;;;;;;;3.31;59.57;94520.03;4894020;28;20054;-85
2021/03/04 04:09:06;;;;;;;;;;;;;;;;;;;;;
2021/03/04 04:11:53;;;;;;;22.60;13.75;;;;;;;3.40;60.03;94536.16;4927237;28;20424;-85
2021/03/04 04:14:22;;;;;;;25.80;16.10;;;;;;;3.14;60.31;94497.38;4923373;28;20070;-85
2021/03/04 04:16:59;;;;;;;29.00;18.33;;;;;;;3.55;60.89;94578.31;4918077;28;20497;-85
2021/03/04 04:19:25;;;;;;;43.30;25.20;;;;;;;3.16;61.93;94514.44;4874590;28;20519;-85
2021/03/04 04:21:51;;;;;;;42.63;26.38;;;;;;;3.16;62.23;94529.31;4906753;28;20067;-84
2021/03/04 04:24:17;;;;;;;46.60;27.65;;;;;;;3.10;62.93;94511.91;4945054;28;20038;-85
2021/03/04 04:26:45;;;;;;;39.78;21.52;;;;;;;3.17;62.57;94520.44;4951804;28;20047;-85
2021/03/04 04:29:17;;;;;;;25.77;16.40;;;;;;;3.17;61.55;94512.63;4924456;28;20051;-85
2021/03/04 04:31:50;;;;;;;30.15;16.73;;;;;;;3.01;61.71;94493.97;4936245;28;20031;-85
2021/03/04 04:34:18;;;;;;;27.17;16.40;;;;;;;3.04;61.66;94503.16;4946546;28;20477;-85
2021/03/04 04:36:48;;;;;;;23.55;14.85;;;;;;;3.02;61.44;94494.78;4910604;28;20186;-85
2021/03/04 04:39:20;;;;;;;18.80;12.38;;;;;;;2.78;61.73;94488.72;4904840;28;20042;-85
2021/03/04 04:41:54;;;;;;;20.30;12.07;;;;;;;2.82;61.18;94468.97;4948170;28;20126;-85
2021/03/04 04:44:24;;;;;;;24.88;12.98;;;;;;;3.41;61.33;94566.50;4900039;28;20053;-86
2021/03/04 04:46:50;;;;;;;21.13;11.13;;;;;;;3.23;61.26;94527.38;4908227;28;20037;-85
2021/03/04 04:49:23;;;;;;;19.17;11.55;;;;;;;3.52;60.77;94560.47;4891255;28;20401;-85
2021/03/04 04:51:50;;;;;;;19.77;13.20;;;;;;;3.20;60.96;94520.78;4934585;28;20027;-85
2021/03/04 04:54:31;;;;;;;19.73;11.85;;;;;;;3.16;61.37;94516.25;4917686;28;20436;-85
2021/03/04 04:57:08;;;;;;;17.00;11.10;;;;;;;2.99;61.25;94485.56;4909008;28;20046;-85
2021/03/04 04:59:59;;;;;;;17.88;10.00;;;;;;;3.41;60.74;94542.97;4878411;28;20042;-85
2021/03/04 05:02:33;;;;;;;15.40;9.65;;;;;;;2.96;61.18;94496.47;4918719;28;21228;-85
2021/03/04 05:05:05;;;;;;;18.27;10.73;;;;;;;3.46;60.89;94548.31;4912414;28;20626;-85
2021/03/04 05:07:41;;;;;;;18.20;10.98;;;;;;;3.60;60.88;94544.47;4953502;28;20265;-85
2021/03/04 05:13:51;;;;;;;17.13;10.85;;;;;;;3.98;58.07;94483.03;4847319;28;20051;-85
2021/03/04 05:16:22;;;;;;;22.05;11.65;;;;;;;4.39;57.06;94463.69;4864418;28;20052;-86
2021/03/04 05:18:48;;;;;;;19.33;11.50;;;;;;;4.76;55.53;94449.97;4927944;28;20058;-85
2021/03/04 05:21:34;;;;;;;19.35;12.30;;;;;;;4.88;54.93;94442.06;4882650;28;20107;-86
2021/03/04 05:24:00;;;;;;;21.30;12.57;;;;;;;4.89;55.05;94448.88;4892505;28;20052;-85
2021/03/04 05:26:59;;;;;;;18.30;12.73;;;;;;;5.02;56.54;94466.91;4864083;29;20046;-85
2021/03/04 05:29:25;;;;;;;24.80;11.93;;;;;;;5.18;54.91;94447.75;4901761;28;20452;-85
2021/03/04 05:32:22;;;;;;;23.98;13.57;;;;;;;5.86;54.60;94524.53;4941803;28;20097;-85
2021/03/04 05:35:29;;;;;;;21.23;13.88;;;;;;;5.54;54.42;94472.69;4910854;28;20551;-85
2021/03/04 05:38:21;;;;;;;28.45;17.30;;;;;;;5.50;55.03;94471.56;4948459;28;20047;-86
2021/03/04 05:41:03;;;;;;;34.78;19.52;;;;;;;5.75;54.57;94483.44;4883393;28;20062;-85
2021/03/04 05:43:28;;;;;;;32.63;21.60;;;;;;;5.47;55.47;94445.06;4925363;28;20042;-85
2021/03/04 05:46:10;;;;;;;35.13;22.95;;;;;;;5.84;54.37;94455.78;4834038;29;20123;-85
2021/03/04 05:48:53;;;;;;;41.13;25.08;;;;;;;6.39;52.84;94468.81;4916362;28;20062;-85
2021/03/04 05:52:01;;;;;;;35.13;22.02;;;;;;;7.32;51.64;94457.06;4953351;28;20089;-85
2021/03/04 05:55:17;;;;;;;37.75;24.42;;;;;;;8.76;48.15;94485.44;4868656;28;20047;-86
2021/03/04 05:57:53;;;;;;;38.05;23.77;;;;;;;9.65;45.24;94445.38;4920953;28;20539;-86
2021/03/04 06:00:58;;;;;;;48.03;27.92;;;;;;;10.69;42.94;94447.16;4956056;28;20043;-85
2021/03/04 06:04:02;;;;;;;50.58;28.23;;;;;;;11.36;40.74;94450.94;4889481;28;20052;-86
2021/03/04 06:06:57;;;;;;;55.35;33.53;;;;;;;11.66;40.41;94479.81;5078169;23;20068;-86
2021/03/04 06:13:30;;;;;;;57.38;33.08;;;;;;;13.51;37.67;94494.06;4945975;23;20046;-86
2021/03/04 06:16:51;;;;;;;;;;;;;;;;;;;;;
2021/03/04 06:19:36;;;;;;;59.83;35.00;;;;;;;14.59;35.66;94471.44;4810411;29;20049;-86
2021/03/04 06:22:06;;;;;;;62.33;35.78;;;;;;;14.68;34.61;94432.41;4888912;28;20043;-84
2021/03/04 06:24:36;;;;;;;65.28;37.22;;;;;;;15.22;33.72;94495.41;4939162;28;20047;-86
2021/03/04 06:27:14;;;;;;;62.95;38.22;;;;;;;15.93;32.39;94483.13;4918545;28;20323;-86
2021/03/04 06:30:24;;;;;;;61.35;38.17;;;;;;;16.37;32.24;94492.91;4884508;28;20052;-86
2021/03/04 06:33:16;;;;;;;61.75;38.15;;;;;;;16.41;31.05;94435.19;4844265;29;20268;-86
2021/03/04 06:36:28;;;;;;;57.85;37.30;;;;;;;18.02;29.67;94487.50;4882607;28;20051;-86
2021/03/04 06:38:59;;;;;;;55.08;34.30;;;;;;;18.53;28.09;94444.53;4832969;29;20133;-85
2021/03/04 06:41:35;;;;;;;;;;;;;;;;;;;;;
2021/03/04 06:44:11;;;;;;;58.17;36.90;;;;;;;21.16;25.77;94449.94;4818839;29;20031;-83
2021/03/04 06:46:54;;;;;;;57.85;35.80;;;;;;;20.96;25.19;94460.84;4870892;29;20041;-83
2021/03/04 06:49:52;;;;;;;51.05;34.00;;;;;;;21.29;24.82;94417.69;4880369;29;20764;-85
2021/03/04 06:53:14;;;;;;;60.63;38.15;;;;;;;21.48;25.63;94453.59;4826389;28;20125;-85
2021/03/04 06:59:31;;;;;;;51.25;37.25;;;;;;;21.72;24.15;94468.06;4880289;28;20047;-84
2021/03/04 07:05:28;;;;;;;52.88;36.78;;;;;;;21.24;24.32;94409.84;4927437;23;20065;-84
2021/03/04 07:08:20;;;;;;;56.67;36.80;;;;;;;22.17;23.44;94417.44;4894261;29;20048;-84
2021/03/04 07:11:01;;;;;;;46.25;33.47;;;;;;;22.75;22.72;94463.50;4900176;29;20040;-83
2021/03/04 07:13:48;;;;;;;48.15;33.63;;;;;;;23.61;21.89;94467.00;4816777;29;20155;-85
2021/03/04 07:28:56;;;;;;;44.63;31.20;;;;;;;27.29;18.16;94423.34;4535838;23;20047;-85
2021/03/04 07:44:28;;;;;;;46.00;32.00;;;;;;;30.43;15.76;94419.13;4888044;29;20425;-85
2021/03/04 07:47:51;;;;;;;;;;;;;;;;;;;;;
2021/03/04 07:50:30;;;;;;;38.33;32.58;;;;;;;29.76;15.93;94377.81;4865415;23;20509;-85
2021/03/04 08:43:39;;;;;;;;;;;;;;;;;;;;;
2021/03/04 08:46:36;;;;;;;;;;;;;;;;;;;;;
2021/03/04 08:49:18;;;;;;;38.08;26.45;;;;;;;30.37;14.82;94317.09;4898994;29;20039;-85
2021/03/04 08:55:52;;;;;;;;;;;;;;;;;;;;;
2021/03/04 08:58:39;;;;;;;46.15;28.40;;;;;;;28.24;16.62;94292.56;4914425;29;20082;-86
2021/03/04 09:01:15;;;;;;;46.92;30.65;;;;;;;27.47;16.70;94287.72;4789659;29;20638;-86
2021/03/04 09:06:42;;;;;;;40.85;28.30;;;;;;;27.31;17.44;94338.84;4951728;23;20074;-86
2021/03/04 09:15:54;;;;;;;;;;;;;;;;;;;;;
2021/03/04 09:19:05;;;;;;;40.15;27.48;;;;;;;26.49;17.87;94277.91;4896249;28;20063;-89
2021/03/04 09:21:52;;;;;;;40.63;26.42;;;;;;;25.64;18.75;94272.56;4927447;28;20179;-87
2021/03/04 09:24:19;;;;;;;40.67;25.45;;;;;;;25.35;18.71;94276.09;4841191;29;20136;-85
2021/03/04 09:27:39;;;;;;;;;;;;;;;;;;;;;
2021/03/04 09:40:32;;;;;;;34.53;24.58;;;;;;;26.75;18.06;94242.44;4956062;23;20066;-88
2021/03/04 09:43:12;;;;;;;34.08;24.30;;;;;;;26.98;17.46;94244.88;4912109;28;20078;-85
2021/03/04 09:45:57;;;;;;;;;;;;;;;;;;;;;
2021/03/04 09:49:21;;;;;;;36.00;24.05;;;;;;;26.69;17.71;94235.81;4972791;23;20053;-87
2021/03/04 09:51:50;;;;;;;32.05;23.05;;;;;;;26.25;18.04;94255.69;4886076;28;20208;-86
2021/03/04 09:55:05;;;;;;;32.83;23.88;;;;;;;26.10;18.64;94272.94;4897489;29;20410;-86
2021/03/04 10:00:32;;;;;;;36.65;24.85;;;;;;;25.37;18.79;94225.84;4793115;29;20089;-86
2021/03/04 10:03:27;;;;;;;32.10;24.70;;;;;;;25.69;18.97;94236.25;4831093;28;20046;-86
2021/03/04 10:06:06;;;;;;;41.92;25.95;;;;;;;25.38;19.14;94208.47;4895080;28;20082;-86
2021/03/04 10:09:16;;;;;;;39.40;24.83;;;;;;;25.52;19.16;94190.81;4841086;28;20049;-86
2021/03/04 10:12:21;;;;;;;32.45;23.98;;;;;;;24.73;19.49;94174.91;4785113;29;20043;-85
2021/03/04 10:14:50;;;;;;;34.22;23.67;;;;;;;24.81;20.03;94236.00;4926357;28;20047;-80
2021/03/04 10:17:17;;;;;;;36.33;24.63;;;;;;;24.46;20.25;94241.72;4954353;28;20128;-80
2021/03/04 10:19:43;;;;;;;42.28;25.63;;;;;;;24.23;20.24;94227.50;4938241;28;20216;-80
2021/03/04 10:22:09;;;;;;;28.45;23.38;;;;;;;24.84;19.85;94197.41;4938524;28;20138;-80
2021/03/04 10:24:36;;;;;;;50.00;23.67;;;;;;;25.27;19.29;94221.09;4958665;28;20144;-81
2021/03/04 10:27:04;;;;;;;33.65;24.83;;;;;;;25.09;19.30;94220.16;4953767;28;20141;-80
2021/03/04 10:29:30;;;;;;;42.97;24.33;;;;;;;24.86;19.64;94189.72;4940352;28;20564;-80
2021/03/04 10:31:56;;;;;;;36.83;23.48;;;;;;;24.33;20.29;94208.75;4938012;28;20078;-80
2021/03/04 10:34:23;;;;;;;33.90;21.27;;;;;;;23.91;20.55;94160.28;4962580;28;20404;-80
2021/03/04 10:36:49;;;;;;;34.80;22.60;;;;;;;24.02;20.59;94198.22;4918923;28;20035;-80
2021/03/04 10:39:16;;;;;;;39.53;22.90;;;;;;;23.86;20.59;94184.09;4958396;28;20046;-80
2021/03/04 10:41:49;;;;;;;35.25;22.40;;;;;;;24.12;20.46;94182.19;4954108;28;20090;-82
2021/03/04 10:44:15;;;;;;;43.80;24.27;;;;;;;22.98;21.05;94130.22;4938623;28;20297;-80
2021/03/04 10:46:41;;;;;;;34.35;21.83;;;;;;;22.76;21.57;94169.47;4958867;28;21060;-81
2021/03/04 10:49:08;;;;;;;33.28;22.70;;;;;;;22.60;22.03;94176.81;4952634;28;20058;-80
2021/03/04 10:51:35;;;;;;;37.92;21.23;;;;;;;21.86;22.50;94138.31;4956457;28;20035;-79
2021/03/04 10:54:00;;;;;;;35.33;22.48;;;;;;;21.34;22.96;94111.75;4954626;28;20077;-79
2021/03/04 10:56:26;;;;;;;36.20;21.35;;;;;;;21.03;23.45;94139.38;4945410;28;20125;-80
2021/03/04 10:58:52;;;;;;;32.20;22.45;;;;;;;20.42;23.79;94112.06;4955079;28;20686;-79
2021/03/04 11:01:17;;;;;;;32.40;21.77;;;;;;;20.59;24.39;94125.16;4954811;28;20044;-80
2021/03/04 11:03:43;;;;;;;30.40;20.30;;;;;;;20.73;24.45;94159.66;4933260;28;20050;-80
2021/03/04 11:06:13;;;;;;;37.47;22.48;;;;;;;20.74;24.16;94150.50;4951508;28;20097;-79
2021/03/04 11:08:39;;;;;;;35.25;21.05;;;;;;;20.52;24.23;94133.03;4929872;28;20798;-80
2021/03/04 11:11:05;;;;;;;30.45;21.33;;;;;;;20.39;24.46;94114.63;4921149;28;20042;-79
2021/03/04 11:13:31;;;;;;;35.05;21.55;;;;;;;20.55;24.55;94124.28;4952599;28;20043;-79
2021/03/04 11:15:56;;;;;;;34.78;21.58;;;;;;;20.57;23.93;94099.78;4925152;28;20042;-79
2021/03/04 11:18:22;;;;;;;37.15;22.50;;;;;;;20.41;23.89;94123.91;4930077;28;20054;-81
2021/03/04 11:20:47;;;;;;;32.20;21.70;;;;;;;20.52;23.58;94118.84;4923118;28;20092;-80
2021/03/04 11:23:13;;;;;;;34.65;22.10;;;;;;;20.36;24.09;94099.22;4945196;28;20026;-79
2021/03/04 11:25:38;;;;;;;33.22;20.90;;;;;;;20.15;24.41;94100.16;4945893;28;20027;-79
2021/03/04 11:28:06;;;;;;;37.08;22.90;;;;;;;20.25;24.48;94098.88;4912184;28;20047;-80
2021/03/04 11:30:33;;;;;;;35.78;22.13;;;;;;;20.25;24.55;94094.31;4947951;28;20035;-79
2021/03/04 11:33:03;;;;;;;35.67;19.50;;;;;;;20.04;24.60;94077.59;4954307;28;20417;-79
2021/03/04 11:35:32;;;;;;;34.85;21.00;;;;;;;19.86;25.17;94070.97;4940569;28;20090;-80
2021/03/04 11:37:57;;;;;;;40.40;21.20;;;;;;;19.80;25.14;94080.34;4941692;28;20481;-80
2021/03/04 11:40:23;;;;;;;33.85;18.55;;;;;;;19.61;24.81;94042.63;4948571;28;20030;-80
2021/03/04 11:42:49;;;;;;;31.75;18.83;;;;;;;19.74;24.41;94062.97;4948627;28;20034;-81
2021/03/04 11:45:16;;;;;;;33.70;20.38;;;;;;;19.62;24.66;94038.84;4934223;28;20050;-81
2021/03/04 11:47:41;;;;;;;38.20;19.92;;;;;;;19.87;24.42;94051.06;4938823;28;20110;-79
2021/03/04 11:50:08;;;;;;;31.40;19.73;;;;;;;19.64;23.97;94031.25;4934750;28;20110;-79
2021/03/04 11:52:33;;;;;;;41.78;19.92;;;;;;;19.69;24.24;94041.75;4953845;28;20031;-79
2021/03/04 11:54:59;;;;;;;38.05;19.55;;;;;;;19.74;24.13;94033.47;4929383;28;20613;-80
2021/03/04 11:57:25;;;;;;;34.97;19.70;;;;;;;19.83;23.64;94032.19;4946035;28;20584;-80
2021/03/04 11:59:51;;;;;;;31.90;18.63;;;;;;;19.92;23.36;94042.00;4902125;28;20079;-79
2021/03/04 12:02:16;;;;;;;33.60;18.70;;;;;;;19.68;23.29;93998.06;4931408;28;20499;-79
2021/03/04 12:04:42;;;;;;;30.65;17.92;;;;;;;20.01;24.27;94011.22;4933013;28;20058;-80
2021/03/04 12:07:08;;;;;;;28.38;18.90;;;;;;;19.52;23.93;93991.06;4916972;28;20136;-80
2021/03/04 12:09:35;;;;;;;32.85;21.65;;;;;;;19.61;24.45;94024.66;4930381;28;20823;-81
2021/03/04 12:12:00;;;;;;;41.38;23.10;;;;;;;19.38;24.30;93981.47;4940134;28;20105;-79
2021/03/04 12:14:26;;;;;;;34.40;20.45;;;;;;;19.22;24.62;93999.34;4950117;28;20547;-80
2021/03/04 12:16:51;;;;;;;39.20;21.13;;;;;;;19.01;25.18;93994.13;4958452;28;20035;-80
2021/03/04 12:19:17;;;;;;;34.80;20.88;;;;;;;19.01;24.88;93993.34;4933169;28;20616;-79
2021/03/04 12:21:43;;;;;;;35.17;19.50;;;;;;;19.14;25.13;93981.50;4924793;28;20331;-80
2021/03/04 12:24:09;;;;;;;32.45;19.52;;;;;;;19.27;24.64;93988.41;4919213;28;20039;-80
2021/03/04 12:26:35;;;;;;;33.17;20.52;;;;;;;19.20;24.90;93980.16;4928641;28;20118;-80
2021/03/04 12:29:01;;;;;;;28.70;19.88;;;;;;;19.34;24.45;93974.44;4934179;28;20134;-80
2021/03/04 12:31:26;;;;;;;38.00;19.02;;;;;;;19.42;24.54;93966.25;4953448;28;20073;-79
2021/03/04 12:33:52;;;;;;;31.33;19.75;;;;;;;19.52;24.00;93969.63;4948536;28;20130;-80
2021/03/04 12:36:18;;;;;;;32.75;19.58;;;;;;;19.57;24.33;93962.13;4952178;28;20194;-80
2021/03/04 12:38:43;;;;;;;38.13;20.73;;;;;;;19.79;24.11;93968.88;4947483;28;20035;-81
2021/03/04 12:41:09;;;;;;;43.72;21.33;;;;;;;19.79;24.64;93968.88;4935122;28;20054;-80
2021/03/04 12:43:35;;;;;;;32.50;19.05;;;;;;;19.95;24.03;93960.84;4934170;28;20106;-81
2021/03/04 12:46:03;;;;;;;51.47;19.58;;;;;;;19.92;23.59;93962.31;4946575;28;20035;-79
2021/03/04 12:48:28;;;;;;;34.50;22.00;;;;;;;19.89;23.52;93946.88;4942154;28;20198;-80
2021/03/04 12:50:54;;;;;;;38.80;22.02;;;;;;;20.15;23.56;93954.47;4924007;28;20631;-79
2021/03/04 12:53:20;;;;;;;41.70;22.52;;;;;;;19.88;23.57;93934.63;4938824;28;20054;-80
2021/03/04 12:55:46;;;;;;;38.55;23.15;;;;;;;19.68;24.31;93919.53;4956987;28;20018;-79
2021/03/04 12:58:15;;;;;;;36.55;23.35;;;;;;;19.63;24.97;93931.28;4956479;28;20039;-80
2021/03/04 13:00:44;;;;;;;38.60;23.02;;;;;;;19.60;25.03;93945.34;4937324;28;20541;-80
2021/03/04 13:03:10;;;;;;;32.75;22.70;;;;;;;19.41;25.06;93924.50;4947496;28;20568;-80
2021/03/04 13:05:36;;;;;;;39.28;23.48;;;;;;;19.51;25.31;93930.53;4954979;28;20034;-81
2021/03/04 13:08:02;;;;;;;37.15;22.70;;;;;;;19.44;24.53;93926.53;4953439;28;20034;-80
2021/03/04 13:10:28;;;;;;;35.67;21.67;;;;;;;19.68;24.42;93933.72;4948378;28;20018;-80
2021/03/04 13:12:56;;;;;;;43.78;21.45;;;;;;;19.73;24.25;93921.97;4951474;28;20326;-81
2021/03/04 13:15:21;;;;;;;32.92;22.60;;;;;;;19.73;23.77;93917.38;4947207;28;20093;-81
2021/03/04 13:17:47;;;;;;;44.38;22.00;;;;;;;19.66;23.95;93913.72;4943463;28;20035;-80
2021/03/04 13:20:14;;;;;;;45.17;20.92;;;;;;;19.96;24.47;93904.19;4949074;28;20034;-81
2021/03/04 13:22:39;;;;;;;33.85;20.40;;;;;;;19.93;23.71;93904.88;4962968;28;20513;-80
2021/03/04 13:25:05;;;;;;;33.92;20.02;;;;;;;20.03;23.44;93904.38;4937166;28;20445;-81
2021/03/04 13:27:31;;;;;;;40.17;21.88;;;;;;;20.18;23.89;93911.63;4953870;28;20039;-80
2021/03/04 13:29:56;;;;;;;34.50;21.27;;;;;;;20.09;23.35;93911.03;4956677;28;20050;-80
2021/03/04 13:32:22;;;;;;;37.47;20.95;;;;;;;19.79;24.12;93883.06;4952911;28;20528;-80
2021/03/04 13:34:47;;;;;;;39.80;21.38;;;;;;;19.69;23.89;93895.06;4960893;28;20035;-81
2021/03/04 13:37:16;;;;;;;31.77;20.42;;;;;;;19.81;23.55;93891.53;4956511;28;20042;-81
2021/03/04 13:39:42;;;;;;;35.70;20.52;;;;;;;19.85;24.38;93893.16;4957658;28;20530;-82
2021/03/04 13:42:08;;;;;;;32.78;20.58;;;;;;;19.96;24.02;93898.81;4952588;28;20367;-80
2021/03/04 13:44:34;;;;;;;31.10;19.23;;;;;;;19.87;24.16;93884.78;4958746;28;20085;-80
2021/03/04 13:47:00;;;;;;;29.05;19.65;;;;;;;19.41;24.31;93875.47;4953203;28;20160;-80
2021/03/04 13:49:25;;;;;;;30.20;17.88;;;;;;;19.56;24.18;93864.06;4921617;28;20053;-80
2021/03/04 13:51:50;;;;;;;29.50;18.90;;;;;;;19.62;23.79;93867.25;4924379;28;20039;-80
2021/03/04 13:54:16;;;;;;;31.80;18.10;;;;;;;19.68;23.79;93865.91;4936124;28;20050;-80
2021/03/04 13:56:42;;;;;;;27.00;16.50;;;;;;;19.87;23.26;93868.69;4935078;28;20045;-80
2021/03/04 13:59:07;;;;;;;24.13;16.23;;;;;;;19.92;23.36;93881.84;4915525;28;20481;-81
2021/03/04 14:01:33;;;;;;;30.23;17.17;;;;;;;19.85;23.74;93862.88;4936952;28;20058;-80
2021/03/04 14:03:58;;;;;;;29.92;17.65;;;;;;;19.92;23.41;93871.13;4934424;28;20517;-81
2021/03/04 14:06:26;;;;;;;34.55;19.70;;;;;;;19.79;23.46;93846.25;4919677;28;20050;-80
2021/03/04 14:08:52;;;;;;;31.83;17.10;;;;;;;19.94;23.17;93868.84;4933664;28;20051;-80
2021/03/04 14:11:17;;;;;;;32.35;16.42;;;;;;;19.83;23.06;93862.47;4931099;28;20042;-80
2021/03/04 14:13:45;;;;;;;25.05;15.07;;;;;;;19.86;22.72;93851.03;4935400;28;20510;-80
2021/03/04 14:16:10;;;;;;;29.15;16.08;;;;;;;20.01;23.17;93857.53;4937021;28;20094;-80
2021/03/04 14:18:36;;;;;;;30.70;15.32;;;;;;;20.11;22.63;93863.19;4935061;28;20063;-81